createdAt,value
2022-08-05T03:15:12.439Z,4.60
2022-08-05T03:17:41.701Z,3.80
2022-08-05T03:20:10.506Z,4.55
2022-08-05T03:22:44.021Z,4.57
2022-08-05T03:25:33.395Z,4.78
2022-08-05T03:28:02.556Z,4.47
2022-08-05T03:30:34.076Z,4.28
2022-08-05T03:33:02.696Z,3.90
2022-08-05T03:35:41.061Z,4.18
2022-08-05T03:38:53.263Z,4.70
2022-08-05T03:41:23.873Z,4.30
2022-08-05T03:46:44.633Z,4.10
2022-08-05T03:49:16.833Z,4.00
2022-08-05T03:52:39.332Z,4.93
2022-08-05T03:56:05.426Z,3.72
2022-08-05T04:00:19.817Z,3.53
2022-08-05T04:08:29.591Z,3.70
2022-08-05T04:11:01.148Z,4.72
2022-08-05T04:13:50.059Z,5.22
2022-08-05T04:16:16.063Z,4.32
2022-08-05T04:18:54.521Z,4.93
2022-08-05T04:22:08.715Z,4.22
2022-08-05T04:24:19.179Z,4.93
2022-08-05T04:26:50.212Z,4.45
2022-08-05T04:29:17.292Z,4.90
2022-08-05T04:31:44.412Z,5.18
2022-08-05T04:34:18.182Z,4.40
2022-08-05T04:36:59.411Z,4.65
2022-08-05T04:39:28.042Z,4.30
2022-08-05T04:41:55.688Z,5.32
2022-08-05T04:44:30.225Z,4.82
2022-08-05T04:47:00.167Z,4.25
2022-08-05T04:50:03.051Z,4.03
2022-08-05T04:52:27.383Z,4.10
2022-08-05T04:54:57.069Z,4.60
2022-08-05T04:57:28.581Z,4.63
2022-08-05T04:59:56.205Z,4.40
2022-08-05T05:06:40.636Z,4.20
2022-08-05T05:08:42.828Z,4.70
2022-08-05T05:11:10.603Z,4.57
2022-08-05T05:13:43.259Z,4.30
2022-08-05T05:16:10.993Z,5.22
2022-08-05T05:18:38.858Z,5.88
2022-08-05T05:21:06.121Z,5.43
2022-08-05T05:23:39.422Z,5.30
2022-08-05T05:26:28.727Z,4.40
2022-08-05T05:29:00.000Z,5.28
2022-08-05T07:34:21.539Z,6.38
2022-08-05T07:37:04.925Z,6.85
2022-08-05T07:40:26.285Z,5.55
2022-08-05T07:54:02.889Z,5.10
2022-08-05T08:00:05.856Z,6.72
2022-08-05T08:08:44.483Z,6.72
2022-08-05T08:11:27.792Z,6.25
2022-08-05T08:14:29.451Z,5.67
2022-08-05T08:39:53.437Z,3.50
2022-08-05T08:50:07.691Z,3.50
2022-08-05T08:52:42.480Z,3.10
2022-08-05T08:56:02.559Z,3.72
2022-08-05T08:58:36.956Z,3.30
2022-08-05T09:01:15.398Z,3.50
2022-08-05T09:03:54.402Z,3.85
2022-08-05T09:06:28.108Z,3.40
2022-08-05T09:08:57.971Z,3.00
2022-08-05T09:11:52.034Z,3.10
2022-08-05T09:14:58.425Z,3.83
2022-08-05T09:17:40.579Z,3.47
2022-08-05T09:20:10.225Z,3.25
2022-08-05T09:23:07.686Z,3.28
2022-08-05T09:26:02.194Z,3.17
2022-08-05T09:28:32.654Z,3.38
2022-08-05T09:31:44.140Z,3.40
2022-08-05T09:34:04.689Z,2.88
2022-08-05T09:36:45.657Z,3.67
2022-08-05T09:39:45.283Z,2.88
2022-08-05T09:46:04.785Z,3.03
2022-08-05T09:49:08.126Z,3.22
2022-08-05T09:59:19.396Z,3.25
2022-08-05T10:30:06.736Z,4.05
2022-08-05T16:06:29.842Z,2.75
2022-08-05T16:08:58.012Z,2.88
2022-08-05T16:35:06.086Z,3.03
2022-08-05T16:42:12.696Z,3.25
2022-08-05T16:44:22.632Z,3.03
2022-08-05T16:47:28.550Z,3.20
2022-08-05T16:54:03.383Z,3.25
2022-08-05T16:57:03.957Z,2.90
2022-08-05T17:00:07.366Z,2.85
2022-08-05T17:10:02.837Z,3.53
2022-08-05T17:22:24.358Z,3.55
2022-08-05T17:24:58.031Z,4.20
2022-08-05T17:27:34.488Z,3.90
2022-08-05T17:32:56.254Z,3.92
2022-08-05T17:45:38.996Z,3.78
2022-08-05T17:48:08.229Z,3.97
2022-08-05T17:50:35.643Z,3.70
2022-08-05T17:53:04.942Z,2.78
2022-08-05T17:55:40.325Z,3.08
2022-08-05T17:58:09.889Z,3.50
2022-08-05T18:00:47.485Z,3.50
2022-08-05T18:03:58.377Z,2.43
2022-08-05T18:06:19.471Z,3.75
2022-08-05T18:12:15.060Z,3.58
2022-08-05T18:18:11.150Z,3.80
2022-08-05T18:20:38.995Z,3.90
2022-08-05T18:52:05.982Z,5.25
2022-08-05T18:57:43.523Z,4.55
2022-08-05T19:00:27.166Z,5.05
2022-08-05T19:03:03.346Z,4.25
2022-08-05T19:06:12.801Z,4.30
2022-08-05T19:08:21.559Z,4.43
2022-08-05T19:10:50.430Z,4.07
2022-08-05T19:13:18.028Z,4.68
2022-08-05T19:15:59.712Z,4.90
2022-08-05T19:18:33.762Z,4.53
2022-08-05T19:21:13.623Z,4.13
2022-08-05T19:24:12.458Z,4.47
2022-08-05T19:27:37.149Z,4.10
2022-08-05T19:31:08.340Z,3.75
2022-08-05T19:36:59.281Z,3.30
2022-08-05T19:39:28.218Z,2.83
2022-08-05T19:42:07.143Z,3.72
2022-08-05T19:44:45.035Z,3.72
2022-08-05T19:47:16.478Z,3.50
2022-08-05T19:49:49.675Z,4.10
2022-08-05T19:52:40.658Z,3.80
2022-08-05T19:58:29.511Z,3.05
2022-08-05T20:00:58.086Z,3.75
2022-08-05T20:03:38.774Z,3.47
2022-08-05T20:06:15.659Z,3.50
2022-08-05T20:08:47.540Z,3.22
2022-08-05T20:11:17.973Z,3.13
2022-08-05T20:13:59.005Z,3.75
2022-08-05T20:23:08.420Z,3.72
2022-08-05T20:25:42.871Z,3.38
2022-08-05T20:32:33.889Z,3.13
2022-08-05T21:06:28.555Z,4.00
2022-08-05T21:09:31.853Z,3.60
2022-08-05T21:18:26.504Z,3.78
2022-08-05T21:21:16.675Z,3.33
2022-08-05T21:24:30.150Z,3.03
2022-08-05T21:27:27.047Z,3.78
2022-08-05T21:30:02.139Z,3.47
2022-08-05T21:32:34.251Z,3.25
2022-08-05T21:35:29.477Z,3.30
2022-08-05T21:45:14.244Z,2.95
2022-08-05T21:48:01.614Z,3.50
2022-08-05T21:50:34.267Z,4.35
2022-08-05T21:53:16.591Z,3.13
2022-08-05T21:59:00.983Z,3.33
2022-08-05T22:01:37.064Z,4.00
2022-08-05T22:04:18.810Z,4.10
2022-08-05T22:06:52.326Z,3.40
2022-08-05T22:09:45.453Z,3.80
2022-08-05T22:12:27.973Z,3.47
2022-08-05T22:27:19.026Z,3.85
2022-08-05T22:33:58.605Z,3.97
2022-08-05T22:37:31.335Z,3.95
2022-08-05T22:46:29.262Z,4.43
2022-08-05T22:50:17.639Z,4.10
2022-08-05T22:52:30.202Z,4.35
2022-08-05T22:57:47.375Z,4.18
2022-08-05T23:00:17.811Z,4.28
2022-08-05T23:02:58.333Z,5.38
2022-08-05T23:05:26.212Z,5.95
2022-08-05T23:07:57.545Z,5.43
2022-08-05T23:10:26.079Z,4.68
2022-08-05T23:12:55.570Z,5.13
2022-08-05T23:15:36.361Z,5.15
2022-08-05T23:18:06.086Z,4.88
2022-08-05T23:20:43.060Z,5.22
2022-08-05T23:23:13.727Z,5.85
2022-08-05T23:25:53.363Z,5.43
2022-08-05T23:28:29.083Z,5.07
2022-08-05T23:31:36.589Z,5.15
2022-08-05T23:34:12.534Z,4.95
2022-08-05T23:36:56.358Z,4.80
2022-08-05T23:39:32.429Z,4.97
2022-08-05T23:42:14.906Z,5.32
2022-08-05T23:44:54.250Z,5.53
2022-08-05T23:47:21.935Z,5.93
2022-08-05T23:49:55.690Z,4.75
2022-08-05T23:52:27.545Z,5.60
2022-08-05T23:54:56.792Z,5.22
2022-08-05T23:57:24.646Z,5.03
